x

West Sea Otter (46204) Wave Buoy

4:00am - Fri 18th Apr 2014 All times are PDT. -7 hours from GMT.

  • Sig Wave height 8.2ft
  • Peak Period 11s
  • Wind
    9mph, 13mph gusts
  • Air Temp 45°f
  • Sea Pressure 1013.2mb
  • West Sea Otter
  • West Sea Otter

More Historic Weather Station data

Upgrade to MSW Pro to gain access to the past 30 days of data for over 8000 Wavebouys and Weather Stations around the globe.

Join Pro

Comparision Forecast

View Surf forecast
   
Fri 04/18 4:00am 8ft 11s 9 13 mph 1013.2mb 45f
3:00am 9ft 12s 7 9 mph 1013mb 46f
2:00am 10ft 10s 7 9 mph 1012.9mb 46f
1:00am 9ft 11s 7 9 mph 1012.7mb 46f
12:00am 9ft 10s 11 16 mph 1012.4mb 46f
Thu 04/17 11:00pm 10ft 10s 11 16 mph 1012mb 46f
10:00pm 9.5ft 10s 13 16 mph 1011.4mb 46f
9:00pm 9ft 10s 16 20 mph 1011mb 46f
8:00pm 8.5ft 10s 16 20 mph 1010.4mb 46f
7:00pm 8.5ft 11s 16 20 mph 1010mb 46f
6:00pm 8ft 11s 16 20 mph 1009.7mb 47f
5:00pm 8.5ft 9s 18 22 mph 1009.2mb 46f
4:00pm 8.5ft 9s 16 20 mph 1008.7mb 47f
3:00pm 8.5ft 10s 13 16 mph 1008.3mb 47f
2:00pm 9ft 8s 16 20 mph 1007.8mb 47f
1:00pm 9ft 11s 13 18 mph 1007.3mb 47f
12:00pm 9.5ft 11s 11 16 mph 1006.8mb 47f
11:00am 9ft 9s 11 16 mph 1006.3mb 47f
10:00am 9ft 11s 7 11 mph 1005.8mb 47f
9:00am 9ft 11s 13 18 mph 1005.3mb 47f
8:00am 9ft 11s 13 18 mph 1004.7mb 46f
7:00am 9.5ft 10s 13 18 mph 1003.8mb 47f
6:00am 10ft 12s 16 20 mph 1003mb 47f
5:00am 12ft 11s 20 27 mph 1001.8mb 47f
4:00am 11ft 11s 22 27 mph 1000.4mb 47f
3:00am 10ft 12s 31 36 mph 999.4mb 47f
2:00am 9ft 11s 29 36 mph 1000.1mb 47f
1:00am 9.5ft 6s 29 36 mph 1001mb 47f
12:00am 10ft 7s 29 36 mph 1002.1mb 47f
Wed 04/16 11:00pm 9.5ft 12s 27 34 mph 1003.4mb 47f
10:00pm 8ft 12s 34 43 mph 1003.8mb 48f
9:00pm 8ft 11s 29 36 mph 1005.1mb 48f
8:00pm 7ft 10s 27 31 mph 1005.9mb 48f
7:00pm 7ft 11s 22 27 mph 1006.9mb 48f
6:00pm 7ft 12s 20 25 mph 1007.7mb 47f
5:00pm 7ft 11s 20 22 mph 1008.2mb 47f
4:00pm 7ft 11s 18 22 mph 1008.5mb 47f
3:00pm 6.5ft 11s 16 20 mph 1009.1mb 47f
2:00pm 8ft 11s 16 18 mph 1009mb 47f
1:00pm 8ft 12s 25 29 mph 1009mb 46f
12:00pm 8.5ft 6s 25 29 mph 1009.6mb 46f
11:00am 9ft 6s 27 34 mph 1009.6mb 46f
10:00am 9ft 6s 31 38 mph 1009.2mb 47f
9:00am 9ft 6s 29 36 mph 1009.3mb 46f
8:00am 8.5ft 6s 31 38 mph 1009.3mb 46f
7:00am 8ft 6s 27 36 mph 1010.1mb 46f
6:00am 8.5ft 12s 29 38 mph 1010mb 46f
5:00am 8ft 13s 29 36 mph 1010.6mb 46f
4:00am 7ft 13s 27 34 mph 1011.1mb 46f
3:00am 6.5ft 14s 27 36 mph 1011.2mb 47f
2:00am 5.5ft 14s 25 31 mph 1012mb 47f
1:00am 5.5ft 10s 18 22 mph 1012.7mb 47f
12:00am 5.5ft 8s 18 20 mph 1013.1mb 47f
Tue 04/15 11:00pm 6ft 8s 13 18 mph 1013.7mb 46f
10:00pm 6ft 8s 16 18 mph 1014.8mb 46f
8:00pm 5.5ft 9s 13 16 mph 1015.5mb 46f
7:00pm 5ft 9s 13 20 mph 1016.2mb 47f
6:00pm 5ft 9s 9 11 mph 1016.5mb 48f
5:00pm  -   -  11
mph
- -
4:00pm 5ft 10s 13 18 mph 1017.1mb 47f
3:00pm 5.5ft 10s 11 13 mph 1017.5mb 48f
2:00pm 6ft 10s 13 16 mph 1017.4mb 47f
1:00pm 6.5ft 9s 13 16 mph 1017.3mb 47f
12:00pm 7ft 8s 11 13 mph 1017.7mb 47f
11:00am 7ft 10s 11 16 mph 1017.7mb 46f
10:00am 7ft 9s 16 18 mph 1017.5mb 47f
9:00am 7ft 9s 9 13 mph 1017.5mb 47f
8:00am 7ft 10s 9 11 mph 1017.4mb 46f
7:00am 8ft 10s 13 18 mph 1016.9mb 46f
6:00am 8ft 10s 9 11 mph 1016.7mb 47f
5:00am 8ft 11s 11 16 mph 1016.5mb 47f
4:00am 9ft 10s 16 20 mph 1016.4mb 47f
3:00am 10ft 12s 16 18 mph 1016.3mb 47f
2:00am 10ft 11s 18 22 mph 1016.5mb 47f
1:00am 10ft 12s 18 20 mph 1016.9mb 47f
12:00am 11ft 12s 18 20 mph 1017.4mb 47f
Mon 04/14 11:00pm 12ft 11s 16 22 mph 1017.9mb 46f
10:00pm 12.5ft 12s 18 22 mph 1018.2mb 47f
9:00pm 13ft 12s 18 25 mph 1018.3mb 47f
8:00pm 13ft 10s 20 27 mph 1017.8mb 47f
7:00pm 14ft 10s 22 27 mph 1017.7mb 46f
6:00pm 11ft 9s 22 31 mph 1017.4mb 47f
5:00pm 11ft 8s 25 31 mph 1016.9mb 47f
4:00pm 10.5ft 8s 27 36 mph 1016.2mb 47f
3:00pm 9ft 6s 31 38 mph 1015.7mb 46f
2:00pm 8ft 6s 29 36 mph 1015.4mb 47f
1:00pm 6.5ft 6s 27 34 mph 1016mb 46f